Murchison, New Zealand
Current Conditions -  °F | °C
As of 1:00 AM on Tuesday 23 Dec 2014 (Local Time) from NZCH Reporting Station
Overcast Overcast  
Wind Chill: 59°   Ceiling: 1200
Heat Index: 59°   Visibility: 6mi
Dew Point: 55°   Wind: 7mph
Humidity: 88%   Direction: 60°ENE
Pressure: 30.21"   Gusts: NA
Location:  41.81°S, 172.33°E
Report Text: NZCH 221300Z AUTO 06006KT 9999 OVC012/// 15/13 Q1023 BECMGBKN009
Loading
Personal Weather Stations






























Interactive Weather Map New forecast layout! Learn more

10-Day Weather Forecast

Advertisements
Track Severe Weather on mobile